Time;durP1;ratioP1;P1;durP2;ratioP2;P2;SDS_P1;SDS_P2;PMS_P1;PMS_P2;Temp;Humidity;BMP_temperature;BMP_pressure;BME280_temperature;BME280_humidity;BME280_pressure;Samples;Min_cycle;Max_cycle;Signal;HPM_P1;HPM_P2
2021/05/02 00:01:23;;;;;;;24.88;8.68;;;;;;;;;;5011731;28;20053;-67
2021/05/02 00:03:49;;;;;;;26.00;8.88;;;;;;;;;;5009716;28;20045;-68
2021/05/02 00:06:16;;;;;;;27.83;8.85;;;;;;;;;;4994025;28;20049;-67
2021/05/02 00:08:43;;;;;;;26.05;8.63;;;;;;;;;;5011726;28;20069;-68
2021/05/02 00:11:11;;;;;;;25.08;8.48;;;;;;;;;;4994280;28;20084;-67
2021/05/02 00:13:57;;;;;;;26.13;9.15;;;;;;;;;;4993485;28;20134;-68
2021/05/02 00:16:23;;;;;;;24.48;8.80;;;;;;;;;;4995108;28;20038;-68
2021/05/02 00:18:50;;;;;;;24.00;9.38;;;;;;;;;;5009582;28;20493;-68
2021/05/02 00:21:16;;;;;;;28.55;9.70;;;;;;;;;;4992665;28;20877;-67
2021/05/02 00:23:42;;;;;;;24.05;8.80;;;;;;;;;;5013398;28;20053;-67
2021/05/02 00:26:09;;;;;;;21.58;9.23;;;;;;;;;;5012202;28;20408;-67
2021/05/02 00:28:38;;;;;;;25.58;9.68;;;;;;;;;;5010865;28;20042;-66
2021/05/02 00:31:08;;;;;;;21.98;8.55;;;;;;;;;;4991685;28;20061;-66
2021/05/02 00:33:35;;;;;;;24.48;9.32;;;;;;;;;;5012027;28;20408;-66
2021/05/02 00:36:03;;;;;;;27.13;9.25;;;;;;;;;;5008470;28;20049;-67
2021/05/02 00:38:29;;;;;;;25.60;10.60;;;;;;;;;;5011472;28;20499;-67
2021/05/02 00:40:57;;;;;;;21.50;10.00;;;;;;;;;;5012811;28;20069;-66
2021/05/02 00:43:27;;;;;;;25.13;10.43;;;;;;;;;;5012566;28;20029;-66
2021/05/02 00:45:56;;;;;;;25.75;10.80;;;;;;;;;;5011546;28;20046;-66
2021/05/02 00:48:35;;;;;;;22.63;10.23;;;;;;;;;;5011931;28;20068;-66
2021/05/02 00:51:05;;;;;;;25.48;9.93;;;;;;;;;;4992702;28;20452;-67
2021/05/02 00:53:38;;;;;;;20.80;9.68;;;;;;;;;;5012143;28;20081;-66
2021/05/02 00:56:22;;;;;;;18.97;9.50;;;;;;;;;;5013102;28;20113;-67
2021/05/02 00:58:49;;;;;;;;;;;;;;;;;;4994857;28;20304;-66
2021/05/02 01:01:19;;;;;;;19.10;9.27;;;;;;;;;;5012830;28;20408;-67
2021/05/02 01:03:47;;;;;;;21.05;10.25;;;;;;;;;;5005950;28;20077;-66
2021/05/02 01:06:14;;;;;;;21.27;8.55;;;;;;;;;;5013125;28;20091;-66
2021/05/02 01:08:41;;;;;;;18.02;8.23;;;;;;;;;;5011515;28;20042;-67
2021/05/02 01:11:10;;;;;;;19.02;8.73;;;;;;;;;;5010042;28;20050;-67
2021/05/02 01:13:40;;;;;;;22.48;9.40;;;;;;;;;;5010507;28;20052;-66
2021/05/02 01:16:09;;;;;;;18.20;8.25;;;;;;;;;;5006838;28;20030;-67
2021/05/02 01:18:36;;;;;;;21.63;8.15;;;;;;;;;;5012481;28;20132;-66
2021/05/02 01:21:03;;;;;;;23.83;8.07;;;;;;;;;;5008663;28;20050;-67
2021/05/02 01:23:31;;;;;;;20.40;7.30;;;;;;;;;;4996764;28;20477;-66
2021/05/02 01:25:59;;;;;;;20.95;7.88;;;;;;;;;;5016345;28;20053;-67
2021/05/02 01:28:26;;;;;;;22.95;8.48;;;;;;;;;;5010190;28;20103;-66
2021/05/02 01:30:53;;;;;;;17.73;7.10;;;;;;;;;;5007564;28;20048;-66
2021/05/02 01:33:19;;;;;;;13.65;5.82;;;;;;;;;;5008261;28;20045;-66
2021/05/02 01:35:46;;;;;;;11.68;4.95;;;;;;;;;;5011066;28;20050;-67
2021/05/02 01:38:13;;;;;;;14.00;5.65;;;;;;;;;;5010702;28;20056;-67
2021/05/02 01:40:39;;;;;;;20.50;5.95;;;;;;;;;;5012168;28;20038;-67
2021/05/02 01:43:05;;;;;;;11.57;5.38;;;;;;;;;;5010608;28;20042;-67
2021/05/02 01:45:32;;;;;;;14.25;5.60;;;;;;;;;;5011805;28;20045;-66
2021/05/02 01:48:06;;;;;;;14.45;5.40;;;;;;;;;;5010506;28;20523;-67
2021/05/02 01:50:37;;;;;;;12.95;5.90;;;;;;;;;;5008792;28;20048;-66
2021/05/02 01:53:04;;;;;;;12.27;5.22;;;;;;;;;;4990387;28;20041;-67
2021/05/02 01:55:31;;;;;;;12.98;5.10;;;;;;;;;;5006374;28;20108;-67
2021/05/02 01:57:58;;;;;;;11.48;4.70;;;;;;;;;;5011416;28;20034;-66
2021/05/02 02:00:24;;;;;;;11.40;4.68;;;;;;;;;;5009935;28;20105;-66
2021/05/02 02:02:51;;;;;;;12.45;4.55;;;;;;;;;;5005820;28;20481;-67
2021/05/02 02:05:19;;;;;;;11.80;4.40;;;;;;;;;;5009327;28;20046;-66
2021/05/02 02:07:45;;;;;;;10.05;4.47;;;;;;;;;;4995140;28;20089;-66
2021/05/02 02:10:11;;;;;;;13.75;3.88;;;;;;;;;;5008806;28;20034;-67
2021/05/02 02:12:38;;;;;;;10.50;3.80;;;;;;;;;;5010185;28;20033;-67
2021/05/02 02:15:05;;;;;;;13.15;3.58;;;;;;;;;;4996351;28;20034;-67
2021/05/02 02:17:31;;;;;;;12.85;4.43;;;;;;;;;;5011642;28;20531;-66
2021/05/02 02:19:57;;;;;;;15.75;3.85;;;;;;;;;;4992503;28;20077;-67
2021/05/02 02:22:24;;;;;;;9.50;3.70;;;;;;;;;;5012499;28;20044;-67
2021/05/02 02:24:56;;;;;;;9.32;3.80;;;;;;;;;;5010080;28;20440;-67
2021/05/02 02:27:26;;;;;;;11.85;3.30;;;;;;;;;;5013753;28;20045;-67
2021/05/02 02:29:53;;;;;;;10.10;3.38;;;;;;;;;;5008975;28;20049;-66
2021/05/02 02:32:19;;;;;;;8.85;2.85;;;;;;;;;;5013029;28;20084;-67
2021/05/02 02:34:47;;;;;;;10.10;3.13;;;;;;;;;;4995759;28;20038;-67
2021/05/02 02:37:14;;;;;;;11.75;2.30;;;;;;;;;;5013703;28;20066;-67
2021/05/02 02:39:44;;;;;;;5.15;1.98;;;;;;;;;;4996828;28;20133;-67
2021/05/02 02:42:12;;;;;;;10.15;2.95;;;;;;;;;;4996251;28;20394;-67
2021/05/02 02:44:38;;;;;;;7.57;3.08;;;;;;;;;;5010980;28;20139;-67
2021/05/02 02:47:06;;;;;;;8.07;2.28;;;;;;;;;;5008955;28;20133;-67
2021/05/02 02:49:33;;;;;;;8.95;2.35;;;;;;;;;;4995626;28;20070;-67
2021/05/02 02:52:00;;;;;;;9.32;2.03;;;;;;;;;;5008806;28;20034;-67
2021/05/02 02:54:28;;;;;;;7.70;2.65;;;;;;;;;;4992077;28;20486;-67
2021/05/02 02:56:57;;;;;;;8.48;1.95;;;;;;;;;;5015869;28;20066;-67
2021/05/02 02:59:29;;;;;;;7.72;2.58;;;;;;;;;;5012181;28;20038;-67
2021/05/02 03:01:56;;;;;;;3.17;1.60;;;;;;;;;;5014842;28;20057;-67
2021/05/02 03:04:23;;;;;;;8.57;2.25;;;;;;;;;;4996431;28;20119;-67
2021/05/02 03:06:52;;;;;;;6.97;1.83;;;;;;;;;;5014217;28;20141;-67
2021/05/02 03:09:19;;;;;;;6.95;2.20;;;;;;;;;;5006481;28;20034;-67
2021/05/02 03:11:46;;;;;;;8.32;2.50;;;;;;;;;;5014998;28;20125;-67
2021/05/02 03:14:12;;;;;;;6.88;2.63;;;;;;;;;;4996611;28;20053;-67
2021/05/02 03:16:44;;;;;;;10.35;2.20;;;;;;;;;;5014257;28;20046;-67
2021/05/02 03:19:11;;;;;;;7.85;2.30;;;;;;;;;;5009432;28;20045;-67
2021/05/02 03:21:53;;;;;;;4.05;2.45;;;;;;;;;;4994962;28;20038;-67
2021/05/02 03:24:30;;;;;;;8.02;2.35;;;;;;;;;;5013944;28;20404;-67
2021/05/02 03:27:00;;;;;;;10.10;2.20;;;;;;;;;;5009282;28;20113;-67
2021/05/02 03:29:30;;;;;;;7.43;2.05;;;;;;;;;;5012499;28;20041;-67
2021/05/02 03:31:57;;;;;;;9.18;1.85;;;;;;;;;;5010112;28;20060;-67
2021/05/02 03:34:24;;;;;;;11.82;2.50;;;;;;;;;;5012288;28;20042;-67
2021/05/02 03:36:52;;;;;;;9.35;2.22;;;;;;;;;;5012127;28;20050;-67
2021/05/02 03:39:18;;;;;;;7.80;2.25;;;;;;;;;;5011109;28;20052;-67
2021/05/02 03:41:44;;;;;;;6.82;2.15;;;;;;;;;;5014218;28;20056;-67
2021/05/02 03:44:10;;;;;;;7.93;2.28;;;;;;;;;;4978467;28;20064;-67
2021/05/02 03:46:36;;;;;;;6.90;1.80;;;;;;;;;;5013478;28;20577;-67
2021/05/02 03:49:04;;;;;;;7.50;1.90;;;;;;;;;;5007968;28;20172;-67
2021/05/02 03:51:31;;;;;;;8.80;1.85;;;;;;;;;;5006656;28;20124;-67
2021/05/02 03:53:58;;;;;;;6.07;1.92;;;;;;;;;;5014190;28;20042;-67
2021/05/02 03:56:40;;;;;;;7.45;2.00;;;;;;;;;;4995204;28;20042;-67
2021/05/02 03:59:17;;;;;;;7.20;2.20;;;;;;;;;;5014878;28;20042;-67
2021/05/02 04:01:50;;;;;;;11.90;2.45;;;;;;;;;;5009278;28;20048;-67
2021/05/02 04:04:18;;;;;;;5.80;2.03;;;;;;;;;;5012447;28;20124;-67
2021/05/02 04:06:44;;;;;;;8.43;3.00;;;;;;;;;;5010167;28;20137;-67
2021/05/02 04:09:11;;;;;;;8.57;2.95;;;;;;;;;;5012460;28;20069;-67
2021/05/02 04:11:37;;;;;;;9.55;3.17;;;;;;;;;;5009645;28;20128;-67
2021/05/02 04:14:07;;;;;;;9.23;3.28;;;;;;;;;;5011022;28;20042;-67
2021/05/02 04:16:33;;;;;;;11.57;2.88;;;;;;;;;;5012145;28;20046;-67
2021/05/02 04:19:01;;;;;;;12.23;3.17;;;;;;;;;;5014653;28;20091;-67
2021/05/02 04:21:27;;;;;;;10.70;2.88;;;;;;;;;;5010735;28;20056;-67
2021/05/02 04:23:53;;;;;;;8.45;3.90;;;;;;;;;;5010609;28;20038;-67
2021/05/02 04:26:20;;;;;;;9.88;3.50;;;;;;;;;;4993889;28;20042;-67
2021/05/02 04:28:46;;;;;;;7.32;3.92;;;;;;;;;;5008954;28;20046;-67
2021/05/02 04:31:12;;;;;;;10.80;3.95;;;;;;;;;;5010015;28;22158;-67
2021/05/02 04:33:39;;;;;;;7.30;3.58;;;;;;;;;;5012974;28;20084;-67
2021/05/02 04:36:05;;;;;;;4.75;2.97;;;;;;;;;;5011871;28;20041;-66
2021/05/02 04:38:31;;;;;;;6.18;3.30;;;;;;;;;;5008891;28;20050;-67
2021/05/02 04:40:57;;;;;;;7.75;3.00;;;;;;;;;;5011117;28;20034;-66
2021/05/02 04:43:24;;;;;;;8.15;3.42;;;;;;;;;;4991494;28;20046;-67
2021/05/02 04:45:50;;;;;;;10.90;3.78;;;;;;;;;;5012155;28;20477;-67
2021/05/02 04:48:16;;;;;;;8.20;3.10;;;;;;;;;;5009717;28;20049;-66
2021/05/02 04:50:42;;;;;;;12.00;3.50;;;;;;;;;;5009764;28;20045;-66
2021/05/02 04:53:09;;;;;;;8.30;3.63;;;;;;;;;;5010247;28;20049;-66
2021/05/02 04:55:35;;;;;;;9.95;3.00;;;;;;;;;;5009728;28;20073;-67
2021/05/02 04:58:02;;;;;;;7.65;3.20;;;;;;;;;;4994157;28;20511;-67
2021/05/02 05:00:28;;;;;;;8.02;3.42;;;;;;;;;;5011143;28;20042;-66
2021/05/02 05:02:58;;;;;;;11.48;3.47;;;;;;;;;;5010486;28;20037;-67
2021/05/02 05:05:24;;;;;;;10.27;3.53;;;;;;;;;;5012354;28;20081;-66
2021/05/02 05:07:51;;;;;;;12.52;2.67;;;;;;;;;;4993178;28;20065;-67
2021/05/02 05:10:18;;;;;;;9.02;2.97;;;;;;;;;;5009193;28;20046;-66
2021/05/02 05:12:44;;;;;;;8.15;3.05;;;;;;;;;;5009534;28;20093;-66
2021/05/02 05:15:11;;;;;;;12.85;3.45;;;;;;;;;;4994012;28;20042;-67
2021/05/02 05:17:37;;;;;;;8.10;3.30;;;;;;;;;;5012189;28;20120;-66
2021/05/02 05:20:04;;;;;;;8.90;3.60;;;;;;;;;;5010756;28;20441;-67
2021/05/02 05:22:31;;;;;;;10.05;3.50;;;;;;;;;;4993419;28;20038;-66
2021/05/02 05:24:58;;;;;;;11.50;3.58;;;;;;;;;;5010798;28;20107;-67
2021/05/02 05:27:24;;;;;;;12.27;3.67;;;;;;;;;;5013246;28;20721;-66
2021/05/02 05:29:51;;;;;;;6.85;3.00;;;;;;;;;;5010017;28;20084;-67
2021/05/02 05:32:17;;;;;;;10.38;2.88;;;;;;;;;;5012073;28;20473;-66
2021/05/02 05:34:43;;;;;;;7.30;2.72;;;;;;;;;;5010791;28;20476;-67
2021/05/02 05:37:09;;;;;;;9.75;3.03;;;;;;;;;;5009950;28;20050;-66
2021/05/02 05:39:36;;;;;;;7.20;2.85;;;;;;;;;;5008472;28;20058;-67
2021/05/02 05:42:03;;;;;;;4.18;2.50;;;;;;;;;;5006813;28;20100;-66
2021/05/02 05:44:29;;;;;;;7.68;2.80;;;;;;;;;;5004401;28;20093;-66
2021/05/02 05:46:56;;;;;;;6.53;2.15;;;;;;;;;;5009316;28;20076;-66
2021/05/02 05:49:22;;;;;;;5.88;2.30;;;;;;;;;;4988067;28;20099;-66
2021/05/02 05:51:51;;;;;;;7.68;3.83;;;;;;;;;;5005903;28;20104;-66
2021/05/02 05:54:18;;;;;;;4.68;2.20;;;;;;;;;;5009369;28;20069;-66
2021/05/02 05:56:44;;;;;;;6.60;2.50;;;;;;;;;;5008388;28;20042;-66
2021/05/02 05:59:10;;;;;;;7.30;2.60;;;;;;;;;;5007829;28;20477;-66
2021/05/02 06:01:36;;;;;;;4.15;2.60;;;;;;;;;;4991928;28;20044;-66
2021/05/02 06:04:03;;;;;;;6.70;2.17;;;;;;;;;;5009761;28;20504;-66
2021/05/02 06:06:35;;;;;;;3.50;2.22;;;;;;;;;;5012330;28;20084;-66
2021/05/02 06:09:01;;;;;;;3.95;1.90;;;;;;;;;;5005355;28;20153;-66
2021/05/02 06:11:31;;;;;;;6.30;2.13;;;;;;;;;;5009933;28;20042;-67
2021/05/02 06:13:58;;;;;;;9.02;2.15;;;;;;;;;;4992620;28;20033;-66
2021/05/02 06:16:24;;;;;;;6.25;2.38;;;;;;;;;;5008744;28;20054;-67
2021/05/02 06:18:53;;;;;;;6.30;2.17;;;;;;;;;;5007012;28;20038;-66
2021/05/02 06:21:21;;;;;;;6.25;1.80;;;;;;;;;;5008530;28;20041;-66
2021/05/02 06:23:48;;;;;;;6.18;2.05;;;;;;;;;;5009522;28;20073;-66
2021/05/02 06:26:15;;;;;;;3.70;1.83;;;;;;;;;;4993718;28;20053;-66
2021/05/02 06:28:42;;;;;;;5.63;2.13;;;;;;;;;;4992444;28;20042;-67
2021/05/02 06:31:08;;;;;;;6.32;1.92;;;;;;;;;;5010079;28;20128;-67
2021/05/02 06:33:36;;;;;;;4.72;1.80;;;;;;;;;;5009296;28;20035;-67
2021/05/02 06:36:02;;;;;;;4.80;2.08;;;;;;;;;;5007861;28;20034;-66
2021/05/02 06:38:28;;;;;;;6.18;1.80;;;;;;;;;;4991538;28;606827;-67
2021/05/02 06:40:54;;;;;;;4.65;1.85;;;;;;;;;;5008118;28;20100;-66
2021/05/02 06:43:20;;;;;;;7.13;2.40;;;;;;;;;;5007921;28;20653;-67
2021/05/02 06:45:47;;;;;;;5.43;2.35;;;;;;;;;;5006912;28;20049;-67
2021/05/02 06:48:13;;;;;;;10.05;2.60;;;;;;;;;;5009834;28;20049;-67
2021/05/02 06:50:39;;;;;;;4.90;2.35;;;;;;;;;;5012162;28;20048;-67
2021/05/02 06:53:05;;;;;;;5.25;2.17;;;;;;;;;;5009992;28;20042;-67
2021/05/02 06:55:31;;;;;;;8.05;1.98;;;;;;;;;;5010224;28;20038;-67
2021/05/02 06:57:59;;;;;;;6.03;1.92;;;;;;;;;;5010268;28;20116;-67
2021/05/02 07:00:26;;;;;;;8.55;1.90;;;;;;;;;;4997031;28;20331;-66
2021/05/02 07:02:52;;;;;;;4.00;1.83;;;;;;;;;;5009559;28;20049;-66
2021/05/02 07:05:18;;;;;;;6.25;2.10;;;;;;;;;;5012173;28;20038;-67
2021/05/02 07:07:44;;;;;;;5.03;2.13;;;;;;;;;;5009259;28;20042;-67
2021/05/02 07:10:11;;;;;;;6.32;2.92;;;;;;;;;;5011057;28;20133;-68
2021/05/02 07:12:37;;;;;;;7.40;3.00;;;;;;;;;;5012576;28;20057;-67
2021/05/02 07:15:04;;;;;;;5.18;3.45;;;;;;;;;;5013226;28;20052;-67
2021/05/02 07:17:31;;;;;;;8.93;2.20;;;;;;;;;;4995835;28;20500;-68
2021/05/02 07:19:58;;;;;;;3.95;2.50;;;;;;;;;;5014763;28;20046;-67
2021/05/02 07:22:26;;;;;;;4.75;2.10;;;;;;;;;;5012720;28;20037;-67
2021/05/02 07:24:52;;;;;;;4.78;1.92;;;;;;;;;;5011782;28;20465;-67
2021/05/02 07:27:19;;;;;;;3.60;1.73;;;;;;;;;;4993479;28;20042;-68
2021/05/02 07:29:45;;;;;;;9.35;1.90;;;;;;;;;;5013739;28;20050;-68
2021/05/02 07:32:11;;;;;;;3.95;1.48;;;;;;;;;;5009596;28;20378;-68
2021/05/02 07:34:37;;;;;;;3.15;1.60;;;;;;;;;;5012132;28;20492;-68
2021/05/02 07:37:03;;;;;;;3.85;1.90;;;;;;;;;;5006962;28;20057;-66
2021/05/02 07:39:30;;;;;;;3.95;2.03;;;;;;;;;;5015409;28;20057;-66
2021/05/02 07:41:56;;;;;;;8.05;2.40;;;;;;;;;;5011955;28;20037;-66
2021/05/02 07:44:22;;;;;;;12.43;2.00;;;;;;;;;;5013595;28;20125;-66
2021/05/02 07:46:48;;;;;;;10.40;2.15;;;;;;;;;;5012636;28;20423;-66
2021/05/02 07:49:14;;;;;;;7.95;2.38;;;;;;;;;;5013406;28;20038;-66
2021/05/02 07:51:41;;;;;;;8.68;2.38;;;;;;;;;;5009477;28;20042;-67
2021/05/02 07:54:07;;;;;;;4.95;2.58;;;;;;;;;;5011317;28;20064;-67
2021/05/02 07:56:33;;;;;;;7.18;2.20;;;;;;;;;;5011518;28;20195;-67
2021/05/02 07:58:59;;;;;;;7.65;2.90;;;;;;;;;;5011764;28;20053;-67
2021/05/02 08:01:26;;;;;;;11.25;3.00;;;;;;;;;;5011700;28;20125;-67
2021/05/02 08:03:52;;;;;;;6.88;2.65;;;;;;;;;;5009884;28;20046;-67
2021/05/02 08:06:18;;;;;;;8.55;2.72;;;;;;;;;;5012650;28;20053;-67
2021/05/02 08:08:44;;;;;;;5.47;2.10;;;;;;;;;;5003311;28;20052;-67
2021/05/02 08:11:10;;;;;;;;;;;;;;;;;;4997740;28;20072;-66
2021/05/02 08:13:36;;;;;;;;;;;;;;;;;;5008552;28;19972;-67
2021/05/02 08:16:02;;;;;;;;;;;;;;;;;;5008596;28;20144;-67
2021/05/02 08:18:28;;;;;;;;;;;;;;;;;;5012211;28;19925;-67
2021/05/02 08:20:54;;;;;;;;;;;;;;;;;;5008879;28;19921;-67
2021/05/02 08:23:21;;;;;;;;;;;;;;;;;;5013553;28;19932;-67
2021/05/02 08:25:47;;;;;;;;;;;;;;;;;;4993296;28;19921;-68
2021/05/02 08:28:13;;;;;;;;;;;;;;;;;;5007473;28;19922;-67
2021/05/02 08:30:39;;;;;;;;;;;;;;;;;;5005268;28;19926;-67
2021/05/02 08:33:05;;;;;;;;;;;;;;;;;;5011864;28;19929;-67
2021/05/02 08:35:31;;;;;;;;;;;;;;;;;;5013485;28;19921;-67
2021/05/02 08:37:57;;;;;;;;;;;;;;;;;;5008681;28;19941;-67
2021/05/02 08:40:23;;;;;;;;;;;;;;;;;;5009949;28;19961;-67
2021/05/02 08:42:49;;;;;;;6.28;1.73;;;;;;;;;;5009205;28;20004;-67
2021/05/02 08:45:16;;;;;;;4.20;1.80;;;;;;;;;;4991869;28;20073;-67
2021/05/02 08:47:42;;;;;;;7.28;1.70;;;;;;;;;;5011476;28;20423;-67
2021/05/02 08:50:12;;;;;;;3.13;1.33;;;;;;;;;;5010004;28;20058;-68
2021/05/02 08:52:40;;;;;;;4.00;1.50;;;;;;;;;;4994004;28;20382;-68
2021/05/02 08:55:07;;;;;;;5.03;2.05;;;;;;;;;;5005762;28;20344;-67
2021/05/02 08:57:34;;;;;;;4.40;1.27;;;;;;;;;;4993477;28;20050;-67
2021/05/02 09:00:00;;;;;;;4.70;1.27;;;;;;;;;;5009708;28;20400;-66
2021/05/02 09:02:28;;;;;;;3.45;1.13;;;;;;;;;;5009414;28;20044;-67
2021/05/02 09:04:55;;;;;;;5.63;1.63;;;;;;;;;;5009857;28;20046;-67
2021/05/02 09:07:21;;;;;;;3.85;1.70;;;;;;;;;;5011119;28;20071;-67
2021/05/02 09:09:48;;;;;;;4.70;1.50;;;;;;;;;;4994277;28;20400;-68
2021/05/02 09:12:14;;;;;;;;;;;;;;;;;;5009705;28;20129;-67
2021/05/02 09:14:40;;;;;;;;;;;;;;;;;;5013235;28;20347;-67
2021/05/02 09:17:16;;;;;;;;;;;;;;;;;;5011278;28;20008;-68
2021/05/02 09:19:42;;;;;;;;;;;;;;;;;;5004970;28;19944;-67
2021/05/02 09:22:08;;;;;;;;;;;;;;;;;;5009848;28;19925;-67
2021/05/02 09:24:34;;;;;;;;;;;;;;;;;;4995008;28;19929;-67
2021/05/02 09:27:00;;;;;;;;;;;;;;;;;;5006516;28;19929;-68
2021/05/02 09:29:26;;;;;;;;;;;;;;;;;;5008826;28;19930;-69
2021/05/02 09:31:52;;;;;;;;;;;;;;;;;;5003914;28;20257;-67
2021/05/02 09:34:19;;;;;;;;;;;;;;;;;;5007801;28;19928;-67
2021/05/02 09:36:45;;;;;;;;;;;;;;;;;;5008724;28;20361;-67
2021/05/02 09:39:11;;;;;;;;;;;;;;;;;;5005098;28;19925;-67
2021/05/02 09:41:37;;;;;;;;;;;;;;;;;;5008109;28;19929;-67
2021/05/02 09:44:03;;;;;;;;;;;;;;;;;;5008586;28;19928;-67
2021/05/02 09:46:30;;;;;;;;;;;;;;;;;;5011258;28;20288;-67
2021/05/02 09:48:56;;;;;;;;;;;;;;;;;;5007498;28;20419;-67
2021/05/02 09:51:22;;;;;;;;;;;;;;;;;;5003891;28;20005;-67
2021/05/02 09:53:48;;;;;;;;;;;;;;;;;;5005487;28;19964;-67
2021/05/02 09:56:14;;;;;;;;;;;;;;;;;;5004992;28;19965;-68
2021/05/02 09:58:40;;;;;;;;;;;;;;;;;;5008568;28;19929;-68
2021/05/02 10:01:07;;;;;;;;;;;;;;;;;;5007527;28;20486;-68
2021/05/02 10:03:35;;;;;;;;;;;;;;;;;;5011108;28;19928;-68
2021/05/02 10:06:03;;;;;;;;;;;;;;;;;;5008674;28;19922;-68
2021/05/02 10:08:29;;;;;;;;;;;;;;;;;;5007127;28;19969;-68
2021/05/02 10:10:55;;;;;;;;;;;;;;;;;;5010971;28;19937;-69
2021/05/02 10:13:21;;;;;;;;;;;;;;;;;;5010197;28;20348;-66
2021/05/02 10:15:47;;;;;;;;;;;;;;;;;;5009004;28;20467;-66
2021/05/02 10:18:13;;;;;;;;;;;;;;;;;;5012750;28;19925;-69
2021/05/02 10:20:39;;;;;;;;;;;;;;;;;;5008129;28;19921;-68
2021/05/02 10:23:07;;;;;;;;;;;;;;;;;;4990466;28;19928;-67
2021/05/02 10:25:34;;;;;;;;;;;;;;;;;;5005757;28;19929;-68
2021/05/02 10:28:00;;;;;;;;;;;;;;;;;;5008990;28;20270;-67
2021/05/02 10:30:26;;;;;;;;;;;;;;;;;;5002273;28;19925;-67
2021/05/02 10:32:52;;;;;;;;;;;;;;;;;;4995083;28;19930;-67
2021/05/02 10:35:18;;;;;;;;;;;;;;;;;;5009248;28;20125;-67
2021/05/02 10:37:44;;;;;;;;;;;;;;;;;;5014429;28;20476;-67
2021/05/02 10:40:10;;;;;;;;;;;;;;;;;;5011724;28;20288;-68
2021/05/02 10:42:36;;;;;;;;;;;;;;;;;;5012904;28;19972;-67
2021/05/02 10:45:02;;;;;;;;;;;;;;;;;;5013879;28;19953;-68
2021/05/02 10:47:28;;;;;;;;;;;;;;;;;;5012649;28;19921;-69
2021/05/02 10:49:55;;;;;;;;;;;;;;;;;;4995806;28;20352;-68
2021/05/02 10:52:21;;;;;;;;;;;;;;;;;;5011310;28;20004;-68
2021/05/02 10:54:47;;;;;;;;;;;;;;;;;;4996128;28;20015;-69
2021/05/02 10:57:14;;;;;;;;;;;;;;;;;;5011568;28;19928;-69
2021/05/02 10:59:40;;;;;;;;;;;;;;;;;;5016167;28;20003;-67
2021/05/02 11:02:06;;;;;;;;;;;;;;;;;;5012442;28;19925;-67
2021/05/02 11:04:32;;;;;;;;;;;;;;;;;;5008856;28;20386;-67
2021/05/02 11:06:58;;;;;;;;;;;;;;;;;;5012158;28;20394;-67
2021/05/02 11:09:24;;;;;;;;;;;;;;;;;;5012441;28;19925;-68
2021/05/02 11:11:51;;;;;;;;;;;;;;;;;;5013252;28;19921;-67
2021/05/02 11:14:26;;;;;;;;;;;;;;;;;;5018511;28;19927;-67
2021/05/02 11:16:52;;;;;;;;;;;;;;;;;;5013688;28;20369;-67
2021/05/02 11:19:23;;;;;;;6.05;2.13;;;;;;;;;;5011375;28;19921;-70
2021/05/02 11:21:50;;;;;;;6.65;1.80;;;;;;;;;;5011478;28;20054;-69
2021/05/02 11:24:17;;;;;;;3.97;1.55;;;;;;;;;;5012322;28;20053;-67
2021/05/02 11:32:31;;;;;;;5.07;1.40;;;;;;;;;;5009679;28;20049;-69
2021/05/02 11:35:04;;;;;;;13.10;1.73;;;;;;;;;;5010195;28;20046;-68
2021/05/02 11:37:49;;;;;;;9.52;1.75;;;;;;;;;;5011118;28;20137;-69
2021/05/02 11:40:24;;;;;;;4.88;1.90;;;;;;;;;;5028253;28;20053;-68
2021/05/02 11:42:58;;;;;;;9.35;1.85;;;;;;;;;;5012773;28;20044;-69
2021/05/02 11:45:26;;;;;;;5.68;2.13;;;;;;;;;;4993510;28;20058;-70
2021/05/02 11:47:52;;;;;;;8.07;1.70;;;;;;;;;;5021161;28;20087;-69
2021/05/02 11:50:19;;;;;;;4.90;1.65;;;;;;;;;;5012940;28;20077;-69
2021/05/02 11:52:49;;;;;;;5.57;1.52;;;;;;;;;;4993028;28;20054;-68
2021/05/02 11:55:27;;;;;;;5.57;1.35;;;;;;;;;;5010591;28;20046;-69
2021/05/02 11:57:54;;;;;;;4.75;1.60;;;;;;;;;;4995071;28;20480;-69
2021/05/02 12:00:32;;;;;;;5.50;1.67;;;;;;;;;;5004001;28;20090;-68
2021/05/02 12:02:58;;;;;;;5.97;1.63;;;;;;;;;;5020977;28;20129;-69
2021/05/02 12:05:25;;;;;;;8.18;1.83;;;;;;;;;;5004012;28;20068;-70
2021/05/02 12:08:06;;;;;;;7.35;1.30;;;;;;;;;;5007212;28;20595;-69
2021/05/02 12:10:32;;;;;;;5.70;1.88;;;;;;;;;;5010222;28;20145;-69
2021/05/02 12:12:58;;;;;;;4.53;1.23;;;;;;;;;;5010821;28;20042;-69
2021/05/02 12:15:24;;;;;;;3.80;1.40;;;;;;;;;;5009425;28;20041;-69
2021/05/02 12:17:51;;;;;;;4.80;1.33;;;;;;;;;;4993936;28;20084;-69
2021/05/02 12:20:24;;;;;;;1.55;1.00;;;;;;;;;;5010001;28;20046;-70
2021/05/02 12:22:51;;;;;;;5.25;1.40;;;;;;;;;;5010576;28;20056;-69
2021/05/02 12:25:17;;;;;;;4.80;1.58;;;;;;;;;;4992614;28;20124;-68
2021/05/02 12:27:58;;;;;;;6.03;1.73;;;;;;;;;;5011325;28;20611;-67
2021/05/02 12:30:24;;;;;;;4.82;1.58;;;;;;;;;;5002476;28;20052;-68
2021/05/02 12:32:51;;;;;;;5.15;1.58;;;;;;;;;;5013209;28;20034;-68
2021/05/02 12:35:17;;;;;;;2.80;1.30;;;;;;;;;;5020083;28;20053;-67
2021/05/02 12:37:43;;;;;;;5.53;1.35;;;;;;;;;;5016827;28;20124;-68
2021/05/02 12:40:10;;;;;;;1.23;0.90;;;;;;;;;;5010941;28;20050;-68
2021/05/02 12:42:37;;;;;;;3.72;0.98;;;;;;;;;;5009497;28;20096;-68
2021/05/02 12:45:08;;;;;;;1.90;0.82;;;;;;;;;;4992525;28;20435;-68
2021/05/02 12:47:41;;;;;;;2.22;0.80;;;;;;;;;;5009990;28;20512;-68
2021/05/02 12:50:08;;;;;;;2.55;1.02;;;;;;;;;;5010298;28;20049;-68
2021/05/02 12:52:38;;;;;;;2.97;0.85;;;;;;;;;;5009568;28;20050;-68
2021/05/02 12:55:20;;;;;;;2.40;0.85;;;;;;;;;;4992189;28;20057;-68
2021/05/02 12:57:50;;;;;;;6.15;1.40;;;;;;;;;;5008640;28;20128;-68
2021/05/02 13:00:18;;;;;;;4.57;1.65;;;;;;;;;;5010426;28;20081;-68
2021/05/02 13:02:46;;;;;;;1.88;1.05;;;;;;;;;;5009456;28;20133;-68
2021/05/02 13:05:12;;;;;;;3.70;1.30;;;;;;;;;;5011714;28;20118;-68
2021/05/02 13:07:45;;;;;;;4.50;1.33;;;;;;;;;;5008594;28;20096;-68
2021/05/02 13:10:14;;;;;;;1.92;1.00;;;;;;;;;;5009724;28;20049;-69
2021/05/02 13:12:51;;;;;;;4.20;1.30;;;;;;;;;;5008668;28;20141;-68
2021/05/02 13:15:18;;;;;;;4.30;1.08;;;;;;;;;;5008561;28;20046;-68
2021/05/02 13:18:17;;;;;;;4.47;1.50;;;;;;;;;;4991887;28;20132;-68
2021/05/02 13:20:50;;;;;;;5.80;1.40;;;;;;;;;;4967524;28;20493;-68
2021/05/02 13:23:43;;;;;;;4.00;1.73;;;;;;;;;;4990301;28;20050;-68
2021/05/02 13:26:13;;;;;;;4.10;1.60;;;;;;;;;;4989936;28;20058;-69
2021/05/02 13:29:00;;;;;;;2.45;1.30;;;;;;;;;;5009008;28;20057;-69
2021/05/02 13:31:38;;;;;;;5.53;1.42;;;;;;;;;;5007641;28;20072;-69
2021/05/02 13:34:04;;;;;;;5.63;1.70;;;;;;;;;;5001503;28;20046;-68
2021/05/02 13:36:31;;;;;;;3.58;1.58;;;;;;;;;;5013484;28;20041;-70
2021/05/02 13:38:57;;;;;;;1.73;0.82;;;;;;;;;;4993817;28;20053;-69
2021/05/02 13:41:23;;;;;;;4.10;1.58;;;;;;;;;;5010752;28;20053;-69
2021/05/02 13:44:01;;;;;;;6.00;1.20;;;;;;;;;;4994291;28;20522;-69
2021/05/02 13:46:27;;;;;;;3.42;1.50;;;;;;;;;;5010866;28;20050;-72
2021/05/02 13:48:53;;;;;;;3.22;1.25;;;;;;;;;;4993840;28;20547;-71
2021/05/02 13:51:19;;;;;;;7.78;1.25;;;;;;;;;;4993141;28;20050;-69
2021/05/02 13:53:49;;;;;;;6.88;1.40;;;;;;;;;;5010038;28;20096;-69
2021/05/02 13:56:17;;;;;;;5.18;1.40;;;;;;;;;;5011052;28;20096;-69
2021/05/02 13:58:43;;;;;;;4.78;1.52;;;;;;;;;;5010934;28;20038;-69
2021/05/02 14:01:09;;;;;;;3.83;1.45;;;;;;;;;;5011602;28;20537;-69
2021/05/02 14:03:35;;;;;;;5.22;1.70;;;;;;;;;;4993594;28;20109;-68
2021/05/02 14:06:01;;;;;;;2.97;1.40;;;;;;;;;;5009917;28;20121;-69
2021/05/02 14:08:27;;;;;;;3.55;1.50;;;;;;;;;;5009704;28;20141;-69
2021/05/02 14:10:53;;;;;;;6.05;1.52;;;;;;;;;;4979933;28;20481;-70
2021/05/02 14:13:20;;;;;;;3.72;1.33;;;;;;;;;;5014398;28;20149;-70
2021/05/02 14:15:49;;;;;;;3.42;1.70;;;;;;;;;;5013975;28;20133;-69
2021/05/02 14:18:15;;;;;;;2.97;0.93;;;;;;;;;;4997595;28;20053;-72
2021/05/02 14:20:43;;;;;;;3.50;1.05;;;;;;;;;;5011075;28;20145;-71
2021/05/02 14:23:09;;;;;;;4.05;1.27;;;;;;;;;;5011613;28;20129;-70
2021/05/02 14:25:36;;;;;;;2.25;0.80;;;;;;;;;;5009930;28;20433;-71
2021/05/02 14:28:02;;;;;;;3.03;1.02;;;;;;;;;;5009310;28;20358;-71
2021/05/02 14:30:29;;;;;;;3.55;1.00;;;;;;;;;;5009820;28;20105;-70
2021/05/02 14:32:55;;;;;;;3.42;1.00;;;;;;;;;;5010928;28;20041;-70
2021/05/02 14:35:21;;;;;;;2.72;0.90;;;;;;;;;;5010392;28;20516;-70
2021/05/02 14:37:47;;;;;;;1.63;0.80;;;;;;;;;;5010540;28;20125;-70
2021/05/02 14:40:14;;;;;;;3.85;1.33;;;;;;;;;;5012310;28;20116;-70
2021/05/02 14:42:41;;;;;;;3.05;1.00;;;;;;;;;;4993645;28;20104;-70
2021/05/02 14:45:08;;;;;;;3.65;1.20;;;;;;;;;;4979434;28;20100;-70
2021/05/02 14:47:35;;;;;;;1.23;0.90;;;;;;;;;;5011196;28;20037;-70
2021/05/02 14:50:01;;;;;;;4.25;0.90;;;;;;;;;;4978159;28;20042;-70
2021/05/02 14:52:27;;;;;;;4.22;0.90;;;;;;;;;;5012229;28;20092;-70
2021/05/02 14:54:53;;;;;;;2.22;1.05;;;;;;;;;;5012206;28;20054;-72
2021/05/02 14:57:20;;;;;;;3.50;1.00;;;;;;;;;;4995229;28;20112;-70
2021/05/02 14:59:47;;;;;;;5.45;1.38;;;;;;;;;;5013419;28;20069;-70
2021/05/02 15:02:13;;;;;;;2.95;0.98;;;;;;;;;;5012706;28;20046;-70
2021/05/02 15:04:39;;;;;;;4.03;1.00;;;;;;;;;;5012814;28;20046;-70
2021/05/02 15:07:05;;;;;;;8.95;1.33;;;;;;;;;;5012317;28;20045;-70
2021/05/02 15:09:31;;;;;;;6.32;1.13;;;;;;;;;;5011857;28;20053;-69